RYR4WR EPKK-EDDN
Flight info
| Callsign | RYR4WR |
|---|---|
| Flight time | 0h 58m |
| Altitude | 30000 |
| Route | ADADO DCT UTEVO DCT ETUDA DCT BALTU DCT DONAD DCT OKG N869 NIBIL/N0448F290 Q244 PIVIR PIVIR1V |
| Aircraft | B738/M-SDE2E3FGHIRWXY/LB1 |
Departure
| Time | 2026-05-06 18:16 |
|---|---|
| Airport | Kraków John Paul II International Airport (EPKK) |
Arrival
| Time | 2026-05-06 19:15 |
|---|---|
| Airport | Nuremberg Airport (EDDN) |
| Time | Latitude | Longitude | Altitude | Speed | Heading |
|---|---|---|---|---|---|
| 2026-05-06 17:39 | 50.07578 | 19.80098 | 789 ft | 0 kts | 348° |
| 2026-05-06 18:10 | 50.07579 | 19.80098 | 789 ft | 0 kts | 348° |
| 2026-05-06 18:10 | 50.07590 | 19.80094 | 789 ft | 3 kts | 348° |
| 2026-05-06 18:11 | 50.07623 | 19.80105 | 789 ft | 6 kts | 44° |
| 2026-05-06 18:11 | 50.07639 | 19.80179 | 789 ft | 8 kts | 76° |
| 2026-05-06 18:11 | 50.07651 | 19.80264 | 789 ft | 8 kts | 78° |
| 2026-05-06 18:11 | 50.07663 | 19.80351 | 789 ft | 9 kts | 71° |
| 2026-05-06 18:12 | 50.07715 | 19.80379 | 789 ft | 9 kts | 347° |
| 2026-05-06 18:12 | 50.07778 | 19.80359 | 789 ft | 10 kts | 348° |
| 2026-05-06 18:12 | 50.07835 | 19.80339 | 789 ft | 4 kts | 347° |
| 2026-05-06 18:12 | 50.07843 | 19.80336 | 789 ft | 0 kts | 347° |
| 2026-05-06 18:14 | 50.07848 | 19.80335 | 789 ft | 2 kts | 347° |
| 2026-05-06 18:14 | 50.07879 | 19.80324 | 789 ft | 7 kts | 347° |
| 2026-05-06 18:14 | 50.07947 | 19.80301 | 788 ft | 11 kts | 347° |
| 2026-05-06 18:14 | 50.08014 | 19.80263 | 788 ft | 10 kts | 302° |
| 2026-05-06 18:15 | 50.08008 | 19.80155 | 789 ft | 10 kts | 257° |
| 2026-05-06 18:15 | 50.07992 | 19.80043 | 789 ft | 11 kts | 257° |
| 2026-05-06 18:15 | 50.07929 | 19.79571 | 789 ft | 85 kts | 258° |
| 2026-05-06 18:15 | 50.07748 | 19.78287 | 789 ft | 156 kts | 258° |
| 2026-05-06 18:16 | 50.07510 | 19.76414 | 1140 ft | 188 kts | 262° |
| 2026-05-06 18:16 | 50.07263 | 19.74411 | 1997 ft | 197 kts | 258° |
| 2026-05-06 18:16 | 50.06995 | 19.72243 | 2815 ft | 201 kts | 256° |
| 2026-05-06 18:16 | 50.06692 | 19.70210 | 3817 ft | 184 kts | 253° |
| 2026-05-06 18:17 | 50.06399 | 19.68296 | 4679 ft | 187 kts | 252° |
| 2026-05-06 18:17 | 50.06086 | 19.66223 | 4922 ft | 211 kts | 252° |
| 2026-05-06 18:17 | 50.05735 | 19.63849 | 5249 ft | 229 kts | 253° |
| 2026-05-06 18:17 | 50.05403 | 19.61386 | 5845 ft | 238 kts | 260° |
| 2026-05-06 18:18 | 50.05451 | 19.58752 | 6242 ft | 259 kts | 271° |
| 2026-05-06 18:18 | 50.05710 | 19.55917 | 6889 ft | 268 kts | 274° |
| 2026-05-06 18:18 | 50.06011 | 19.53051 | 7750 ft | 270 kts | 274° |
| 2026-05-06 18:18 | 50.06315 | 19.50149 | 8584 ft | 273 kts | 274° |
| 2026-05-06 18:19 | 50.06613 | 19.47207 | 9386 ft | 277 kts | 274° |
| 2026-05-06 18:19 | 50.06907 | 19.44217 | 10131 ft | 283 kts | 274° |
| 2026-05-06 18:19 | 50.07204 | 19.41067 | 10363 ft | 308 kts | 274° |
| 2026-05-06 18:19 | 50.07518 | 19.37641 | 10557 ft | 331 kts | 274° |
| 2026-05-06 18:20 | 50.07851 | 19.33980 | 10802 ft | 351 kts | 274° |
| 2026-05-06 18:20 | 50.08195 | 19.30174 | 11372 ft | 358 kts | 275° |
| 2026-05-06 18:20 | 50.08544 | 19.26312 | 12124 ft | 361 kts | 275° |
| 2026-05-06 18:20 | 50.08891 | 19.22434 | 12876 ft | 363 kts | 274° |
| 2026-05-06 18:21 | 50.09239 | 19.18508 | 13596 ft | 367 kts | 274° |
| 2026-05-06 18:21 | 50.09587 | 19.14555 | 14241 ft | 370 kts | 274° |
| 2026-05-06 18:21 | 50.09935 | 19.10563 | 14918 ft | 373 kts | 274° |
| 2026-05-06 18:21 | 50.10283 | 19.06553 | 15575 ft | 375 kts | 274° |
| 2026-05-06 18:22 | 50.10633 | 19.02507 | 16219 ft | 378 kts | 274° |
| 2026-05-06 18:22 | 50.10982 | 18.98444 | 16847 ft | 381 kts | 274° |
| 2026-05-06 18:22 | 50.11332 | 18.94339 | 17476 ft | 384 kts | 274° |
| 2026-05-06 18:22 | 50.11685 | 18.90194 | 18095 ft | 387 kts | 274° |
| 2026-05-06 18:23 | 50.12038 | 18.86027 | 18629 ft | 390 kts | 274° |
| 2026-05-06 18:23 | 50.12393 | 18.81821 | 19183 ft | 392 kts | 274° |
| 2026-05-06 18:23 | 50.12748 | 18.77602 | 19723 ft | 394 kts | 274° |
| 2026-05-06 18:23 | 50.13104 | 18.73350 | 20261 ft | 396 kts | 274° |
| 2026-05-06 18:24 | 50.13458 | 18.69091 | 20769 ft | 399 kts | 274° |
| 2026-05-06 18:24 | 50.13816 | 18.64776 | 21275 ft | 402 kts | 274° |
| 2026-05-06 18:24 | 50.14173 | 18.60450 | 21787 ft | 404 kts | 274° |
| 2026-05-06 18:24 | 50.14531 | 18.56090 | 22277 ft | 406 kts | 274° |
| 2026-05-06 18:25 | 50.14889 | 18.51706 | 22761 ft | 409 kts | 274° |
| 2026-05-06 18:25 | 50.15247 | 18.47299 | 23220 ft | 412 kts | 274° |
| 2026-05-06 18:25 | 50.15607 | 18.42860 | 23629 ft | 414 kts | 273° |
| 2026-05-06 18:25 | 50.15966 | 18.38397 | 24033 ft | 416 kts | 273° |
| 2026-05-06 18:26 | 50.16325 | 18.33921 | 24430 ft | 417 kts | 273° |
| 2026-05-06 18:26 | 50.16684 | 18.29422 | 24816 ft | 419 kts | 273° |
| 2026-05-06 18:26 | 50.17043 | 18.24896 | 25185 ft | 421 kts | 273° |
| 2026-05-06 18:26 | 50.17402 | 18.20351 | 25550 ft | 423 kts | 273° |
| 2026-05-06 18:27 | 50.17761 | 18.15788 | 25902 ft | 425 kts | 273° |
| 2026-05-06 18:27 | 50.18119 | 18.11206 | 26253 ft | 427 kts | 273° |
| 2026-05-06 18:27 | 50.18477 | 18.06605 | 26599 ft | 428 kts | 273° |
| 2026-05-06 18:27 | 50.18834 | 18.01980 | 26939 ft | 430 kts | 273° |
| 2026-05-06 18:28 | 50.19191 | 17.97346 | 27278 ft | 431 kts | 273° |
| 2026-05-06 18:28 | 50.19548 | 17.92686 | 27597 ft | 433 kts | 273° |
| 2026-05-06 18:28 | 50.19905 | 17.88001 | 27777 ft | 436 kts | 273° |
| 2026-05-06 18:28 | 50.20262 | 17.83290 | 27781 ft | 438 kts | 272° |
| 2026-05-06 18:29 | 50.20618 | 17.78578 | 27780 ft | 435 kts | 272° |
| 2026-05-06 18:29 | 50.20931 | 17.73907 | 27770 ft | 431 kts | 269° |
| 2026-05-06 18:29 | 50.20974 | 17.69243 | 27785 ft | 429 kts | 266° |
| 2026-05-06 18:29 | 50.20968 | 17.64588 | 27778 ft | 429 kts | 266° |
| 2026-05-06 18:30 | 50.20970 | 17.59922 | 27779 ft | 429 kts | 266° |
| 2026-05-06 18:30 | 50.20980 | 17.55251 | 27785 ft | 429 kts | 265° |
| 2026-05-06 18:30 | 50.20764 | 17.50631 | 27777 ft | 427 kts | 258° |
| 2026-05-06 18:30 | 50.20121 | 17.46134 | 27781 ft | 424 kts | 251° |
| 2026-05-06 18:31 | 50.19256 | 17.41740 | 27778 ft | 424 kts | 250° |
| 2026-05-06 18:31 | 50.18384 | 17.37350 | 27777 ft | 424 kts | 251° |
| 2026-05-06 18:31 | 50.17514 | 17.32949 | 27778 ft | 424 kts | 251° |
| 2026-05-06 18:31 | 50.16651 | 17.28550 | 27771 ft | 425 kts | 251° |
| 2026-05-06 18:32 | 50.15792 | 17.24150 | 27778 ft | 425 kts | 251° |
| 2026-05-06 18:32 | 50.15075 | 17.19671 | 27777 ft | 427 kts | 258° |
| 2026-05-06 18:32 | 50.14809 | 17.15034 | 27796 ft | 434 kts | 266° |
| 2026-05-06 18:32 | 50.14845 | 17.10309 | 28015 ft | 437 kts | 267° |
| 2026-05-06 18:33 | 50.14882 | 17.05582 | 28459 ft | 435 kts | 267° |
| 2026-05-06 18:33 | 50.14910 | 17.00943 | 28984 ft | 432 kts | 267° |
| 2026-05-06 18:33 | 50.14930 | 16.96223 | 29539 ft | 428 kts | 266° |
| 2026-05-06 18:33 | 50.14942 | 16.91574 | 29766 ft | 431 kts | 266° |
| 2026-05-06 18:34 | 50.14948 | 16.82276 | 29768 ft | 430 kts | 266° |
| 2026-05-06 18:34 | 50.14944 | 16.73029 | 29766 ft | 425 kts | 266° |
| 2026-05-06 18:35 | 50.14930 | 16.63805 | 29768 ft | 425 kts | 266° |
| 2026-05-06 18:35 | 50.14909 | 16.54601 | 29770 ft | 425 kts | 266° |
| 2026-05-06 18:36 | 50.14882 | 16.45382 | 29769 ft | 425 kts | 266° |
| 2026-05-06 18:36 | 50.14848 | 16.36170 | 29758 ft | 425 kts | 266° |
| 2026-05-06 18:37 | 50.14813 | 16.28445 | 29763 ft | 425 kts | 266° |
| 2026-05-06 18:37 | 50.14757 | 16.17729 | 29768 ft | 425 kts | 266° |
| 2026-05-06 18:38 | 50.14711 | 16.10054 | 29763 ft | 426 kts | 265° |
| 2026-05-06 18:38 | 50.14649 | 16.00823 | 29771 ft | 426 kts | 265° |
| 2026-05-06 18:39 | 50.14579 | 15.91593 | 29772 ft | 426 kts | 265° |
| 2026-05-06 18:40 | 50.14461 | 15.77721 | 29772 ft | 427 kts | 265° |
| 2026-05-06 18:40 | 50.14373 | 15.68468 | 29773 ft | 427 kts | 265° |
| 2026-05-06 18:41 | 50.14277 | 15.59203 | 29765 ft | 428 kts | 265° |
| 2026-05-06 18:41 | 50.14174 | 15.49930 | 29769 ft | 428 kts | 265° |
| 2026-05-06 18:42 | 50.14064 | 15.40644 | 29766 ft | 429 kts | 265° |
| 2026-05-06 18:42 | 50.13945 | 15.31332 | 29757 ft | 430 kts | 265° |
| 2026-05-06 18:43 | 50.13820 | 15.22018 | 29757 ft | 430 kts | 265° |
| 2026-05-06 18:43 | 50.13686 | 15.12690 | 29753 ft | 431 kts | 265° |
| 2026-05-06 18:44 | 50.13545 | 15.03344 | 29754 ft | 432 kts | 265° |
| 2026-05-06 18:44 | 50.13396 | 14.93979 | 29750 ft | 432 kts | 265° |
| 2026-05-06 18:45 | 50.13239 | 14.84613 | 29753 ft | 433 kts | 265° |
| 2026-05-06 18:45 | 50.13075 | 14.75219 | 29748 ft | 434 kts | 265° |
| 2026-05-06 18:46 | 50.12904 | 14.65883 | 29755 ft | 434 kts | 265° |
| 2026-05-06 18:46 | 50.12723 | 14.56469 | 29746 ft | 435 kts | 265° |
| 2026-05-06 18:47 | 50.12536 | 14.47052 | 29756 ft | 435 kts | 265° |
| 2026-05-06 18:47 | 50.12340 | 14.37610 | 29775 ft | 436 kts | 265° |
| 2026-05-06 18:48 | 50.12136 | 14.28167 | 29777 ft | 436 kts | 265° |
| 2026-05-06 18:48 | 50.11925 | 14.18734 | 29779 ft | 436 kts | 264° |
| 2026-05-06 18:49 | 50.11707 | 14.09301 | 29777 ft | 435 kts | 264° |
| 2026-05-06 18:49 | 50.11481 | 13.99892 | 29772 ft | 434 kts | 264° |
| 2026-05-06 18:50 | 50.11248 | 13.90510 | 29765 ft | 433 kts | 264° |
| 2026-05-06 18:50 | 50.11009 | 13.81160 | 29753 ft | 431 kts | 264° |
| 2026-05-06 18:51 | 50.10763 | 13.71858 | 29755 ft | 429 kts | 264° |
| 2026-05-06 18:51 | 50.10510 | 13.62584 | 29753 ft | 428 kts | 264° |
| 2026-05-06 18:52 | 50.10250 | 13.53319 | 29727 ft | 429 kts | 263° |
| 2026-05-06 18:52 | 50.10115 | 13.48641 | 29369 ft | 435 kts | 264° |
| 2026-05-06 18:52 | 50.09978 | 13.43948 | 28902 ft | 434 kts | 263° |
| 2026-05-06 18:52 | 50.09840 | 13.39253 | 28426 ft | 433 kts | 264° |
| 2026-05-06 18:53 | 50.09700 | 13.34559 | 27991 ft | 436 kts | 264° |
| 2026-05-06 18:53 | 50.09557 | 13.29830 | 27548 ft | 437 kts | 264° |
| 2026-05-06 18:53 | 50.09412 | 13.25103 | 27090 ft | 439 kts | 264° |
| 2026-05-06 18:53 | 50.09267 | 13.20381 | 26770 ft | 429 kts | 264° |
| 2026-05-06 18:54 | 50.09126 | 13.15795 | 26393 ft | 419 kts | 263° |
| 2026-05-06 18:54 | 50.08984 | 13.11293 | 25924 ft | 413 kts | 263° |
| 2026-05-06 18:54 | 50.08842 | 13.06858 | 25421 ft | 408 kts | 263° |
| 2026-05-06 18:54 | 50.08673 | 13.02484 | 24978 ft | 401 kts | 261° |
| 2026-05-06 18:55 | 50.08195 | 12.98236 | 24332 ft | 398 kts | 255° |
| 2026-05-06 18:55 | 50.07574 | 12.94052 | 23735 ft | 396 kts | 254° |
| 2026-05-06 18:55 | 50.06929 | 12.89896 | 23092 ft | 396 kts | 254° |
| 2026-05-06 18:55 | 50.06281 | 12.85732 | 22388 ft | 395 kts | 254° |
| 2026-05-06 18:56 | 50.05643 | 12.81580 | 21699 ft | 394 kts | 254° |
| 2026-05-06 18:56 | 50.05014 | 12.77432 | 21026 ft | 393 kts | 255° |
| 2026-05-06 18:56 | 50.04401 | 12.73350 | 20371 ft | 392 kts | 255° |
| 2026-05-06 18:56 | 50.03783 | 12.69215 | 19726 ft | 392 kts | 255° |
| 2026-05-06 18:57 | 50.03169 | 12.65093 | 19098 ft | 391 kts | 255° |
| 2026-05-06 18:57 | 50.02554 | 12.60972 | 18484 ft | 390 kts | 256° |
| 2026-05-06 18:57 | 50.01940 | 12.56866 | 17848 ft | 390 kts | 256° |
| 2026-05-06 18:57 | 50.01326 | 12.52766 | 17152 ft | 389 kts | 256° |
| 2026-05-06 18:58 | 50.00713 | 12.48682 | 16478 ft | 388 kts | 256° |
| 2026-05-06 18:58 | 50.00099 | 12.44604 | 15815 ft | 386 kts | 255° |
| 2026-05-06 18:58 | 49.99485 | 12.40542 | 15172 ft | 385 kts | 255° |
| 2026-05-06 18:58 | 49.98874 | 12.36508 | 14529 ft | 383 kts | 255° |
| 2026-05-06 18:59 | 49.98273 | 12.32545 | 14436 ft | 367 kts | 255° |
| 2026-05-06 18:59 | 49.97700 | 12.28768 | 14465 ft | 349 kts | 255° |
| 2026-05-06 18:59 | 49.97154 | 12.25181 | 14663 ft | 339 kts | 255° |
| 2026-05-06 18:59 | 49.96608 | 12.21615 | 14778 ft | 340 kts | 255° |
| 2026-05-06 19:00 | 49.96059 | 12.18042 | 14785 ft | 341 kts | 255° |
| 2026-05-06 19:00 | 49.95508 | 12.14461 | 14787 ft | 340 kts | 255° |
| 2026-05-06 19:00 | 49.94959 | 12.10898 | 14796 ft | 340 kts | 255° |
| 2026-05-06 19:00 | 49.94408 | 12.07323 | 14786 ft | 341 kts | 255° |
| 2026-05-06 19:01 | 49.93853 | 12.03737 | 14790 ft | 341 kts | 255° |
| 2026-05-06 19:01 | 49.93298 | 12.00152 | 14795 ft | 341 kts | 255° |
| 2026-05-06 19:01 | 49.92741 | 11.96565 | 14793 ft | 342 kts | 255° |
| 2026-05-06 19:01 | 49.92183 | 11.92982 | 14785 ft | 342 kts | 255° |
| 2026-05-06 19:02 | 49.91624 | 11.89396 | 14795 ft | 342 kts | 255° |
| 2026-05-06 19:02 | 49.91063 | 11.85806 | 14788 ft | 342 kts | 255° |
| 2026-05-06 19:02 | 49.90497 | 11.82223 | 14790 ft | 342 kts | 253° |
| 2026-05-06 19:02 | 49.89545 | 11.78876 | 14774 ft | 341 kts | 238° |
| 2026-05-06 19:03 | 49.88253 | 11.75786 | 14486 ft | 342 kts | 235° |
| 2026-05-06 19:03 | 49.86898 | 11.72755 | 14074 ft | 342 kts | 234° |
| 2026-05-06 19:03 | 49.85529 | 11.69734 | 13676 ft | 342 kts | 234° |
| 2026-05-06 19:03 | 49.84179 | 11.66771 | 13222 ft | 340 kts | 234° |
| 2026-05-06 19:04 | 49.82720 | 11.63852 | 12757 ft | 337 kts | 224° |
| 2026-05-06 19:04 | 49.80926 | 11.61628 | 12346 ft | 334 kts | 216° |
| 2026-05-06 19:04 | 49.79016 | 11.59579 | 11909 ft | 332 kts | 214° |
| 2026-05-06 19:04 | 49.77080 | 11.57556 | 11471 ft | 331 kts | 214° |
| 2026-05-06 19:05 | 49.75172 | 11.55585 | 11048 ft | 329 kts | 212° |
| 2026-05-06 19:05 | 49.73053 | 11.54294 | 10605 ft | 329 kts | 191° |
| 2026-05-06 19:05 | 49.70833 | 11.53911 | 10209 ft | 320 kts | 185° |
| 2026-05-06 19:05 | 49.68614 | 11.53694 | 9786 ft | 312 kts | 184° |
| 2026-05-06 19:06 | 49.66492 | 11.53512 | 9576 ft | 296 kts | 184° |
| 2026-05-06 19:06 | 49.64485 | 11.53471 | 9443 ft | 281 kts | 177° |
| 2026-05-06 19:06 | 49.62609 | 11.53768 | 9233 ft | 271 kts | 175° |
| 2026-05-06 19:06 | 49.60721 | 11.54126 | 8790 ft | 269 kts | 174° |
| 2026-05-06 19:07 | 49.58900 | 11.54482 | 8384 ft | 266 kts | 174° |
| 2026-05-06 19:07 | 49.57068 | 11.54845 | 7984 ft | 264 kts | 174° |
| 2026-05-06 19:07 | 49.55248 | 11.54923 | 7554 ft | 261 kts | 191° |
| 2026-05-06 19:07 | 49.53492 | 11.54343 | 7186 ft | 257 kts | 194° |
| 2026-05-06 19:08 | 49.51752 | 11.53737 | 6793 ft | 256 kts | 194° |
| 2026-05-06 19:08 | 49.50018 | 11.53135 | 6410 ft | 255 kts | 195° |
| 2026-05-06 19:08 | 49.48425 | 11.52043 | 5987 ft | 251 kts | 221° |
| 2026-05-06 19:08 | 49.47406 | 11.49919 | 5602 ft | 247 kts | 249° |
| 2026-05-06 19:09 | 49.46883 | 11.47502 | 5570 ft | 231 kts | 253° |
| 2026-05-06 19:09 | 49.46438 | 11.45189 | 5456 ft | 218 kts | 254° |
| 2026-05-06 19:09 | 49.46136 | 11.43000 | 5317 ft | 205 kts | 274° |
| 2026-05-06 19:09 | 49.46539 | 11.40980 | 5124 ft | 194 kts | 288° |
| 2026-05-06 19:10 | 49.46849 | 11.38993 | 4866 ft | 187 kts | 279° |
| 2026-05-06 19:10 | 49.47047 | 11.37048 | 4612 ft | 181 kts | 278° |
| 2026-05-06 19:10 | 49.47226 | 11.35167 | 4381 ft | 175 kts | 278° |
| 2026-05-06 19:10 | 49.47397 | 11.33364 | 4152 ft | 167 kts | 278° |
| 2026-05-06 19:11 | 49.47563 | 11.31626 | 3921 ft | 162 kts | 278° |
| 2026-05-06 19:11 | 49.47727 | 11.29909 | 3715 ft | 162 kts | 278° |
| 2026-05-06 19:11 | 49.47890 | 11.28209 | 3495 ft | 158 kts | 278° |
| 2026-05-06 19:11 | 49.48050 | 11.26543 | 3291 ft | 158 kts | 278° |
| 2026-05-06 19:12 | 49.48211 | 11.24868 | 3077 ft | 158 kts | 278° |
| 2026-05-06 19:12 | 49.48367 | 11.23246 | 2844 ft | 147 kts | 278° |
| 2026-05-06 19:12 | 49.48512 | 11.21747 | 2707 ft | 137 kts | 278° |
| 2026-05-06 19:12 | 49.48655 | 11.20266 | 2501 ft | 141 kts | 279° |
| 2026-05-06 19:13 | 49.48801 | 11.18759 | 2295 ft | 144 kts | 279° |
| 2026-05-06 19:13 | 49.48950 | 11.17235 | 2097 ft | 144 kts | 278° |
| 2026-05-06 19:13 | 49.49100 | 11.15679 | 1885 ft | 149 kts | 278° |
| 2026-05-06 19:13 | 49.49256 | 11.14070 | 1694 ft | 154 kts | 279° |
| 2026-05-06 19:14 | 49.49420 | 11.12426 | 1474 ft | 156 kts | 279° |
| 2026-05-06 19:14 | 49.49571 | 11.10774 | 1251 ft | 156 kts | 279° |
| 2026-05-06 19:14 | 49.49733 | 11.09188 | 1076 ft | 145 kts | 279° |
| 2026-05-06 19:14 | 49.49855 | 11.07967 | 1046 ft | 65 kts | 278° |
| 2026-05-06 19:15 | 49.49907 | 11.07431 | 1044 ft | 37 kts | 278° |
| 2026-05-06 19:15 | 49.49939 | 11.07107 | 1038 ft | 19 kts | 279° |
| 2026-05-06 19:15 | 49.49888 | 11.07015 | 1035 ft | 10 kts | 181° |
| 2026-05-06 19:15 | 49.49835 | 11.07040 | 1034 ft | 7 kts | 159° |
| 2026-05-06 19:16 | 49.49790 | 11.07069 | 1034 ft | 6 kts | 158° |
| 2026-05-06 19:16 | 49.49785 | 11.07072 | 1034 ft | 0 kts | 158° |
| 2026-05-06 19:16 | 49.49772 | 11.07082 | 1034 ft | 4 kts | 150° |
| 2026-05-06 19:17 | 49.49731 | 11.07218 | 1036 ft | 12 kts | 111° |
| 2026-05-06 19:17 | 49.49707 | 11.07247 | 1036 ft | 1 kts | 179° |
| 2026-05-06 19:17 | 49.49629 | 11.07244 | 1034 ft | 19 kts | 149° |